Details for Delta Airlines at KDTW




Go Back


Latest METAR
Local Time

KDTW 212253Z 10011KT 10SM FEW140 OVC200 24/13 A2984 RMK AO2 SLP100 T02440133

21/06/2018, 19:40:06

Description
Results
Delta Airlines Logo
Number of Pilots based at KDTW
0 Pilots Based here
Number of Delta Airlines Flights Departed from KDTW
2 Flights Departed
Number of Delta Airlines Flights Arrived at KDTW
4 Flights Arrived
Number of Delta Airlines Schedules Departing from KDTW
493 Schedules
Number of Delta Airlines Schedules Arriving at KDTW
514 Schedules
Number of Delta Airlines Schedules Departing from KDTW availible today
331 Schedules Today
Number of Delta Airlines Schedules Arriving at KDTW availible today
316 Schedules Today
Average Landing Rate at KDTW
-220 fpm
Delta Airlines Average Landing Rate at KDTW
-231 fpm
Total Fuel Purchased at KDTW by Delta Airlines
4,276.02 kgs / 9,426.91 lbs

Pilots Based at KDTW


Pilot ID
Pilot Name
Pilot Rank
No. of Flights
No. of Flying Hours
There are no pilots assigned to this hub!   Will you be the first?
Content